sensor_id;sensor_type;location;lat;lon;timestamp;P1;durP1;ratioP1;P2;durP2;ratioP2
32026;SDS011;18543;50.848;4.596;2022-12-18T00:01:15;8.98;;;5.70;;
32026;SDS011;18543;50.848;4.596;2022-12-18T00:03:48;7.28;;;5.85;;
32026;SDS011;18543;50.848;4.596;2022-12-18T00:06:19;6.75;;;5.63;;
32026;SDS011;18543;50.848;4.596;2022-12-18T00:08:47;6.18;;;5.07;;
32026;SDS011;18543;50.848;4.596;2022-12-18T00:11:15;7.47;;;5.70;;
32026;SDS011;18543;50.848;4.596;2022-12-18T00:13:44;6.90;;;5.72;;
32026;SDS011;18543;50.848;4.596;2022-12-18T00:16:13;9.48;;;5.60;;
32026;SDS011;18543;50.848;4.596;2022-12-18T00:18:42;6.47;;;5.53;;
32026;SDS011;18543;50.848;4.596;2022-12-18T00:21:12;6.03;;;5.35;;
32026;SDS011;18543;50.848;4.596;2022-12-18T00:23:40;6.82;;;5.40;;
32026;SDS011;18543;50.848;4.596;2022-12-18T00:26:13;7.68;;;6.05;;
32026;SDS011;18543;50.848;4.596;2022-12-18T00:28:42;8.43;;;5.30;;
32026;SDS011;18543;50.848;4.596;2022-12-18T00:31:13;8.27;;;5.82;;
32026;SDS011;18543;50.848;4.596;2022-12-18T00:33:42;8.20;;;5.43;;
32026;SDS011;18543;50.848;4.596;2022-12-18T00:36:11;7.70;;;5.82;;
32026;SDS011;18543;50.848;4.596;2022-12-18T00:38:40;7.72;;;6.07;;
32026;SDS011;18543;50.848;4.596;2022-12-18T00:41:07;8.27;;;5.13;;
32026;SDS011;18543;50.848;4.596;2022-12-18T00:43:35;7.22;;;5.28;;
32026;SDS011;18543;50.848;4.596;2022-12-18T00:46:03;7.15;;;5.43;;
32026;SDS011;18543;50.848;4.596;2022-12-18T00:48:31;8.30;;;5.55;;
32026;SDS011;18543;50.848;4.596;2022-12-18T00:50:59;6.05;;;5.45;;
32026;SDS011;18543;50.848;4.596;2022-12-18T00:53:26;8.65;;;5.75;;
32026;SDS011;18543;50.848;4.596;2022-12-18T00:55:53;6.72;;;5.80;;
32026;SDS011;18543;50.848;4.596;2022-12-18T00:58:19;6.97;;;6.28;;
32026;SDS011;18543;50.848;4.596;2022-12-18T01:00:46;6.60;;;5.82;;
32026;SDS011;18543;50.848;4.596;2022-12-18T01:03:13;6.80;;;5.97;;
32026;SDS011;18543;50.848;4.596;2022-12-18T01:05:43;6.40;;;5.75;;
32026;SDS011;18543;50.848;4.596;2022-12-18T01:08:09;6.97;;;5.63;;
32026;SDS011;18543;50.848;4.596;2022-12-18T01:10:39;6.88;;;5.53;;
32026;SDS011;18543;50.848;4.596;2022-12-18T01:13:06;7.15;;;5.60;;
32026;SDS011;18543;50.848;4.596;2022-12-18T01:15:34;6.97;;;5.80;;
32026;SDS011;18543;50.848;4.596;2022-12-18T01:18:01;6.53;;;5.35;;
32026;SDS011;18543;50.848;4.596;2022-12-18T01:20:28;7.07;;;5.78;;
32026;SDS011;18543;50.848;4.596;2022-12-18T01:22:54;7.35;;;5.68;;
32026;SDS011;18543;50.848;4.596;2022-12-18T01:25:21;6.32;;;5.50;;
32026;SDS011;18543;50.848;4.596;2022-12-18T01:27:48;6.18;;;5.50;;
32026;SDS011;18543;50.848;4.596;2022-12-18T01:30:15;7.30;;;5.68;;
32026;SDS011;18543;50.848;4.596;2022-12-18T01:32:42;7.82;;;5.88;;
32026;SDS011;18543;50.848;4.596;2022-12-18T01:35:08;5.82;;;5.22;;
32026;SDS011;18543;50.848;4.596;2022-12-18T01:37:35;6.88;;;5.85;;
32026;SDS011;18543;50.848;4.596;2022-12-18T01:40:02;7.20;;;5.68;;
32026;SDS011;18543;50.848;4.596;2022-12-18T01:42:30;7.80;;;5.90;;
32026;SDS011;18543;50.848;4.596;2022-12-18T01:45:00;6.72;;;5.43;;
32026;SDS011;18543;50.848;4.596;2022-12-18T01:47:49;6.63;;;5.63;;
32026;SDS011;18543;50.848;4.596;2022-12-18T01:53:12;8.60;;;5.80;;
32026;SDS011;18543;50.848;4.596;2022-12-18T01:55:43;6.45;;;5.75;;
32026;SDS011;18543;50.848;4.596;2022-12-18T01:58:16;6.65;;;5.95;;
32026;SDS011;18543;50.848;4.596;2022-12-18T02:00:43;6.40;;;5.40;;
32026;SDS011;18543;50.848;4.596;2022-12-18T02:03:11;6.75;;;5.90;;
32026;SDS011;18543;50.848;4.596;2022-12-18T02:11:10;7.40;;;6.13;;
32026;SDS011;18543;50.848;4.596;2022-12-18T02:18:56;6.10;;;5.50;;
32026;SDS011;18543;50.848;4.596;2022-12-18T02:27:08;11.40;;;6.45;;
32026;SDS011;18543;50.848;4.596;2022-12-18T02:29:48;7.18;;;5.95;;
32026;SDS011;18543;50.848;4.596;2022-12-18T02:32:25;7.55;;;5.78;;
32026;SDS011;18543;50.848;4.596;2022-12-18T02:34:56;7.97;;;5.60;;
32026;SDS011;18543;50.848;4.596;2022-12-18T02:37:24;6.47;;;5.60;;
32026;SDS011;18543;50.848;4.596;2022-12-18T02:39:54;6.65;;;5.93;;
32026;SDS011;18543;50.848;4.596;2022-12-18T02:42:23;6.40;;;5.70;;
32026;SDS011;18543;50.848;4.596;2022-12-18T02:44:50;6.38;;;5.72;;
32026;SDS011;18543;50.848;4.596;2022-12-18T02:47:19;5.88;;;5.03;;
32026;SDS011;18543;50.848;4.596;2022-12-18T02:57:54;6.53;;;5.60;;
32026;SDS011;18543;50.848;4.596;2022-12-18T03:03:09;6.60;;;5.90;;
32026;SDS011;18543;50.848;4.596;2022-12-18T03:05:56;8.45;;;5.93;;
32026;SDS011;18543;50.848;4.596;2022-12-18T03:08:32;7.28;;;5.80;;
32026;SDS011;18543;50.848;4.596;2022-12-18T03:13:36;7.13;;;5.72;;
32026;SDS011;18543;50.848;4.596;2022-12-18T03:16:09;6.85;;;5.60;;
32026;SDS011;18543;50.848;4.596;2022-12-18T03:18:42;6.32;;;5.70;;
32026;SDS011;18543;50.848;4.596;2022-12-18T03:21:21;7.25;;;5.90;;
32026;SDS011;18543;50.848;4.596;2022-12-18T03:23:54;7.50;;;6.15;;
32026;SDS011;18543;50.848;4.596;2022-12-18T03:26:22;6.70;;;5.43;;
32026;SDS011;18543;50.848;4.596;2022-12-18T03:29:07;6.55;;;5.60;;
32026;SDS011;18543;50.848;4.596;2022-12-18T03:31:40;6.63;;;5.93;;
32026;SDS011;18543;50.848;4.596;2022-12-18T03:34:15;6.47;;;5.53;;
32026;SDS011;18543;50.848;4.596;2022-12-18T03:36:45;7.00;;;5.63;;
32026;SDS011;18543;50.848;4.596;2022-12-18T03:39:12;6.95;;;5.43;;
32026;SDS011;18543;50.848;4.596;2022-12-18T03:41:43;6.85;;;5.60;;
32026;SDS011;18543;50.848;4.596;2022-12-18T03:49:47;6.07;;;5.47;;
32026;SDS011;18543;50.848;4.596;2022-12-18T03:52:27;6.68;;;5.38;;
32026;SDS011;18543;50.848;4.596;2022-12-18T03:55:02;8.20;;;5.95;;
32026;SDS011;18543;50.848;4.596;2022-12-18T03:57:31;6.13;;;5.32;;
32026;SDS011;18543;50.848;4.596;2022-12-18T04:00:07;8.50;;;5.85;;
32026;SDS011;18543;50.848;4.596;2022-12-18T04:02:36;5.78;;;5.10;;
32026;SDS011;18543;50.848;4.596;2022-12-18T04:05:07;5.53;;;5.03;;
32026;SDS011;18543;50.848;4.596;2022-12-18T04:07:36;6.38;;;5.22;;
32026;SDS011;18543;50.848;4.596;2022-12-18T04:10:05;7.38;;;4.93;;
32026;SDS011;18543;50.848;4.596;2022-12-18T04:12:34;6.90;;;5.38;;
32026;SDS011;18543;50.848;4.596;2022-12-18T04:15:03;6.55;;;5.13;;
32026;SDS011;18543;50.848;4.596;2022-12-18T04:17:31;5.80;;;5.20;;
32026;SDS011;18543;50.848;4.596;2022-12-18T04:19:57;6.30;;;5.00;;
32026;SDS011;18543;50.848;4.596;2022-12-18T04:22:24;6.60;;;5.30;;
32026;SDS011;18543;50.848;4.596;2022-12-18T04:24:51;6.55;;;5.68;;
32026;SDS011;18543;50.848;4.596;2022-12-18T04:27:18;6.40;;;5.07;;
32026;SDS011;18543;50.848;4.596;2022-12-18T04:29:44;7.25;;;5.93;;
32026;SDS011;18543;50.848;4.596;2022-12-18T04:32:11;6.72;;;5.38;;
32026;SDS011;18543;50.848;4.596;2022-12-18T04:34:38;6.90;;;5.78;;
32026;SDS011;18543;50.848;4.596;2022-12-18T04:37:05;6.55;;;5.50;;
32026;SDS011;18543;50.848;4.596;2022-12-18T04:39:31;7.22;;;5.82;;
32026;SDS011;18543;50.848;4.596;2022-12-18T04:41:59;5.65;;;5.15;;
32026;SDS011;18543;50.848;4.596;2022-12-18T04:44:29;5.90;;;5.15;;
32026;SDS011;18543;50.848;4.596;2022-12-18T04:46:55;6.63;;;5.78;;
32026;SDS011;18543;50.848;4.596;2022-12-18T04:49:22;6.10;;;5.22;;
32026;SDS011;18543;50.848;4.596;2022-12-18T04:51:49;5.43;;;4.73;;
32026;SDS011;18543;50.848;4.596;2022-12-18T04:54:16;6.72;;;5.28;;
32026;SDS011;18543;50.848;4.596;2022-12-18T04:56:43;6.90;;;5.43;;
32026;SDS011;18543;50.848;4.596;2022-12-18T04:59:10;5.45;;;4.95;;
32026;SDS011;18543;50.848;4.596;2022-12-18T05:01:37;5.78;;;5.18;;
32026;SDS011;18543;50.848;4.596;2022-12-18T05:04:04;7.05;;;5.28;;
32026;SDS011;18543;50.848;4.596;2022-12-18T05:06:30;7.25;;;5.63;;
32026;SDS011;18543;50.848;4.596;2022-12-18T05:08:57;6.03;;;5.28;;
32026;SDS011;18543;50.848;4.596;2022-12-18T05:11:24;6.00;;;5.45;;
32026;SDS011;18543;50.848;4.596;2022-12-18T05:13:51;6.10;;;5.30;;
32026;SDS011;18543;50.848;4.596;2022-12-18T05:16:17;6.25;;;5.07;;
32026;SDS011;18543;50.848;4.596;2022-12-18T05:18:44;7.07;;;5.28;;
32026;SDS011;18543;50.848;4.596;2022-12-18T05:21:11;6.05;;;5.07;;
32026;SDS011;18543;50.848;4.596;2022-12-18T05:23:38;5.40;;;4.75;;
32026;SDS011;18543;50.848;4.596;2022-12-18T05:26:05;7.28;;;4.78;;
32026;SDS011;18543;50.848;4.596;2022-12-18T05:28:34;7.28;;;5.15;;
32026;SDS011;18543;50.848;4.596;2022-12-18T05:31:02;6.38;;;4.95;;
32026;SDS011;18543;50.848;4.596;2022-12-18T05:33:31;6.35;;;5.25;;
32026;SDS011;18543;50.848;4.596;2022-12-18T05:36:00;5.63;;;4.90;;
32026;SDS011;18543;50.848;4.596;2022-12-18T05:38:28;5.60;;;4.97;;
32026;SDS011;18543;50.848;4.596;2022-12-18T05:40:56;5.57;;;4.55;;
32026;SDS011;18543;50.848;4.596;2022-12-18T05:43:26;5.65;;;4.97;;
32026;SDS011;18543;50.848;4.596;2022-12-18T05:45:53;7.10;;;5.50;;
32026;SDS011;18543;50.848;4.596;2022-12-18T05:48:21;5.43;;;4.93;;
32026;SDS011;18543;50.848;4.596;2022-12-18T05:50:49;6.30;;;5.03;;
32026;SDS011;18543;50.848;4.596;2022-12-18T05:53:17;5.63;;;4.63;;
32026;SDS011;18543;50.848;4.596;2022-12-18T05:55:45;5.47;;;4.85;;
32026;SDS011;18543;50.848;4.596;2022-12-18T05:58:13;5.60;;;4.88;;
32026;SDS011;18543;50.848;4.596;2022-12-18T06:00:42;5.93;;;4.90;;
32026;SDS011;18543;50.848;4.596;2022-12-18T06:03:10;7.28;;;5.00;;
32026;SDS011;18543;50.848;4.596;2022-12-18T06:05:39;5.10;;;4.60;;
32026;SDS011;18543;50.848;4.596;2022-12-18T06:08:07;5.03;;;4.53;;
32026;SDS011;18543;50.848;4.596;2022-12-18T06:10:34;5.20;;;4.68;;
32026;SDS011;18543;50.848;4.596;2022-12-18T06:13:01;6.10;;;4.80;;
32026;SDS011;18543;50.848;4.596;2022-12-18T06:15:29;5.00;;;4.47;;
32026;SDS011;18543;50.848;4.596;2022-12-18T06:17:56;5.13;;;4.43;;
32026;SDS011;18543;50.848;4.596;2022-12-18T06:20:23;5.05;;;4.43;;
32026;SDS011;18543;50.848;4.596;2022-12-18T06:22:57;5.85;;;4.85;;
32026;SDS011;18543;50.848;4.596;2022-12-18T06:25:23;6.47;;;4.68;;
32026;SDS011;18543;50.848;4.596;2022-12-18T06:27:50;5.20;;;4.40;;
32026;SDS011;18543;50.848;4.596;2022-12-18T06:30:17;5.13;;;4.60;;
32026;SDS011;18543;50.848;4.596;2022-12-18T06:32:44;6.10;;;4.80;;
32026;SDS011;18543;50.848;4.596;2022-12-18T06:35:16;5.28;;;4.55;;
32026;SDS011;18543;50.848;4.596;2022-12-18T06:37:46;6.32;;;4.85;;
32026;SDS011;18543;50.848;4.596;2022-12-18T06:40:12;6.22;;;4.70;;
32026;SDS011;18543;50.848;4.596;2022-12-18T06:42:39;5.68;;;4.85;;
32026;SDS011;18543;50.848;4.596;2022-12-18T06:45:07;8.07;;;4.72;;
32026;SDS011;18543;50.848;4.596;2022-12-18T06:47:34;6.13;;;4.95;;
32026;SDS011;18543;50.848;4.596;2022-12-18T06:50:00;7.00;;;4.97;;
32026;SDS011;18543;50.848;4.596;2022-12-18T06:52:27;5.07;;;4.57;;
32026;SDS011;18543;50.848;4.596;2022-12-18T06:54:57;6.03;;;4.45;;
32026;SDS011;18543;50.848;4.596;2022-12-18T06:57:23;5.25;;;4.70;;
32026;SDS011;18543;50.848;4.596;2022-12-18T06:59:50;5.80;;;4.55;;
32026;SDS011;18543;50.848;4.596;2022-12-18T07:02:17;4.90;;;4.30;;
32026;SDS011;18543;50.848;4.596;2022-12-18T07:04:44;4.97;;;4.47;;
32026;SDS011;18543;50.848;4.596;2022-12-18T07:07:11;8.48;;;4.70;;
32026;SDS011;18543;50.848;4.596;2022-12-18T07:09:38;6.28;;;4.43;;
32026;SDS011;18543;50.848;4.596;2022-12-18T07:12:05;5.55;;;4.38;;
32026;SDS011;18543;50.848;4.596;2022-12-18T07:14:33;10.25;;;4.80;;
32026;SDS011;18543;50.848;4.596;2022-12-18T07:17:00;4.88;;;4.38;;
32026;SDS011;18543;50.848;4.596;2022-12-18T07:19:27;6.00;;;4.32;;
32026;SDS011;18543;50.848;4.596;2022-12-18T07:21:57;6.28;;;4.72;;
32026;SDS011;18543;50.848;4.596;2022-12-18T07:24:24;4.88;;;4.38;;
32026;SDS011;18543;50.848;4.596;2022-12-18T07:26:51;5.60;;;3.70;;
32026;SDS011;18543;50.848;4.596;2022-12-18T07:29:18;6.45;;;4.55;;
32026;SDS011;18543;50.848;4.596;2022-12-18T07:31:45;5.93;;;4.50;;
32026;SDS011;18543;50.848;4.596;2022-12-18T07:34:13;6.40;;;4.15;;
32026;SDS011;18543;50.848;4.596;2022-12-18T07:36:40;5.25;;;4.38;;
32026;SDS011;18543;50.848;4.596;2022-12-18T07:39:08;6.15;;;4.50;;
32026;SDS011;18543;50.848;4.596;2022-12-18T07:41:36;4.78;;;4.28;;
32026;SDS011;18543;50.848;4.596;2022-12-18T07:44:10;6.40;;;4.53;;
32026;SDS011;18543;50.848;4.596;2022-12-18T07:46:37;6.05;;;4.22;;
32026;SDS011;18543;50.848;4.596;2022-12-18T07:49:04;7.88;;;4.32;;
32026;SDS011;18543;50.848;4.596;2022-12-18T07:51:32;5.75;;;4.70;;
32026;SDS011;18543;50.848;4.596;2022-12-18T07:53:59;6.10;;;4.60;;
32026;SDS011;18543;50.848;4.596;2022-12-18T07:56:25;7.63;;;3.97;;
32026;SDS011;18543;50.848;4.596;2022-12-18T07:58:56;5.60;;;4.15;;
32026;SDS011;18543;50.848;4.596;2022-12-18T08:03:51;5.63;;;3.85;;
32026;SDS011;18543;50.848;4.596;2022-12-18T08:06:18;5.93;;;4.50;;
32026;SDS011;18543;50.848;4.596;2022-12-18T08:08:53;7.20;;;4.40;;
32026;SDS011;18543;50.848;4.596;2022-12-18T08:11:22;7.72;;;4.32;;
32026;SDS011;18543;50.848;4.596;2022-12-18T08:13:50;7.03;;;4.60;;
32026;SDS011;18543;50.848;4.596;2022-12-18T08:16:18;6.35;;;4.22;;
32026;SDS011;18543;50.848;4.596;2022-12-18T08:21:16;6.25;;;4.10;;
32026;SDS011;18543;50.848;4.596;2022-12-18T08:23:47;6.85;;;4.10;;
32026;SDS011;18543;50.848;4.596;2022-12-18T08:26:16;7.65;;;4.00;;
32026;SDS011;18543;50.848;4.596;2022-12-18T08:28:44;6.95;;;4.18;;
32026;SDS011;18543;50.848;4.596;2022-12-18T08:31:10;5.80;;;4.35;;
32026;SDS011;18543;50.848;4.596;2022-12-18T08:33:38;7.22;;;4.30;;
32026;SDS011;18543;50.848;4.596;2022-12-18T08:36:08;8.63;;;4.53;;
32026;SDS011;18543;50.848;4.596;2022-12-18T08:38:36;7.43;;;4.32;;
32026;SDS011;18543;50.848;4.596;2022-12-18T08:41:06;7.13;;;4.57;;
32026;SDS011;18543;50.848;4.596;2022-12-18T08:43:35;7.25;;;5.00;;
32026;SDS011;18543;50.848;4.596;2022-12-18T08:46:21;8.02;;;4.90;;
32026;SDS011;18543;50.848;4.596;2022-12-18T08:48:50;8.57;;;5.43;;
32026;SDS011;18543;50.848;4.596;2022-12-18T08:51:18;7.85;;;5.70;;
32026;SDS011;18543;50.848;4.596;2022-12-18T08:53:45;8.00;;;5.47;;
32026;SDS011;18543;50.848;4.596;2022-12-18T08:56:13;7.70;;;5.33;;
32026;SDS011;18543;50.848;4.596;2022-12-18T08:58:40;7.53;;;5.40;;
32026;SDS011;18543;50.848;4.596;2022-12-18T09:01:08;8.57;;;5.45;;
32026;SDS011;18543;50.848;4.596;2022-12-18T09:03:37;8.75;;;5.40;;
32026;SDS011;18543;50.848;4.596;2022-12-18T09:06:06;7.15;;;5.30;;
32026;SDS011;18543;50.848;4.596;2022-12-18T09:08:33;8.57;;;5.13;;
32026;SDS011;18543;50.848;4.596;2022-12-18T09:11:02;8.57;;;5.93;;
32026;SDS011;18543;50.848;4.596;2022-12-18T09:13:29;8.88;;;6.05;;
32026;SDS011;18543;50.848;4.596;2022-12-18T09:15:57;16.58;;;7.22;;
32026;SDS011;18543;50.848;4.596;2022-12-18T09:18:24;15.07;;;8.60;;
32026;SDS011;18543;50.848;4.596;2022-12-18T09:20:51;15.03;;;9.47;;
32026;SDS011;18543;50.848;4.596;2022-12-18T09:23:19;14.48;;;10.10;;
32026;SDS011;18543;50.848;4.596;2022-12-18T09:25:47;18.75;;;10.25;;
32026;SDS011;18543;50.848;4.596;2022-12-18T09:28:15;18.55;;;10.15;;
32026;SDS011;18543;50.848;4.596;2022-12-18T09:30:48;19.48;;;10.00;;
32026;SDS011;18543;50.848;4.596;2022-12-18T09:33:16;16.80;;;10.05;;
32026;SDS011;18543;50.848;4.596;2022-12-18T09:35:44;15.18;;;9.40;;
32026;SDS011;18543;50.848;4.596;2022-12-18T09:38:13;17.48;;;8.60;;
32026;SDS011;18543;50.848;4.596;2022-12-18T09:40:43;13.55;;;8.20;;
32026;SDS011;18543;50.848;4.596;2022-12-18T09:43:15;11.45;;;8.10;;
32026;SDS011;18543;50.848;4.596;2022-12-18T09:45:46;14.95;;;8.25;;
32026;SDS011;18543;50.848;4.596;2022-12-18T09:48:34;14.82;;;7.85;;
32026;SDS011;18543;50.848;4.596;2022-12-18T09:51:17;12.23;;;7.80;;
32026;SDS011;18543;50.848;4.596;2022-12-18T09:53:52;12.95;;;7.70;;
32026;SDS011;18543;50.848;4.596;2022-12-18T09:56:25;13.60;;;7.25;;
32026;SDS011;18543;50.848;4.596;2022-12-18T09:58:57;12.95;;;7.03;;
32026;SDS011;18543;50.848;4.596;2022-12-18T10:01:25;11.45;;;6.90;;
32026;SDS011;18543;50.848;4.596;2022-12-18T10:04:07;14.73;;;7.13;;
32026;SDS011;18543;50.848;4.596;2022-12-18T10:06:59;11.45;;;6.93;;
32026;SDS011;18543;50.848;4.596;2022-12-18T10:09:58;12.63;;;6.95;;
32026;SDS011;18543;50.848;4.596;2022-12-18T10:12:34;14.07;;;7.18;;
32026;SDS011;18543;50.848;4.596;2022-12-18T10:15:27;11.05;;;6.60;;
32026;SDS011;18543;50.848;4.596;2022-12-18T10:18:27;15.18;;;6.32;;
32026;SDS011;18543;50.848;4.596;2022-12-18T10:21:09;14.40;;;6.85;;
32026;SDS011;18543;50.848;4.596;2022-12-18T10:26:28;15.43;;;6.30;;
32026;SDS011;18543;50.848;4.596;2022-12-18T10:28:57;16.92;;;6.80;;
32026;SDS011;18543;50.848;4.596;2022-12-18T10:31:30;14.07;;;6.57;;
32026;SDS011;18543;50.848;4.596;2022-12-18T10:33:57;12.27;;;6.90;;
32026;SDS011;18543;50.848;4.596;2022-12-18T10:36:25;13.68;;;6.70;;
32026;SDS011;18543;50.848;4.596;2022-12-18T10:38:52;14.13;;;6.80;;
32026;SDS011;18543;50.848;4.596;2022-12-18T10:44:26;12.27;;;5.93;;
32026;SDS011;18543;50.848;4.596;2022-12-18T10:46:50;13.07;;;6.47;;
32026;SDS011;18543;50.848;4.596;2022-12-18T10:49:33;14.20;;;6.18;;
32026;SDS011;18543;50.848;4.596;2022-12-18T10:54:32;12.57;;;6.13;;
32026;SDS011;18543;50.848;4.596;2022-12-18T10:57:13;12.90;;;6.50;;
32026;SDS011;18543;50.848;4.596;2022-12-18T10:59:55;14.45;;;9.60;;
32026;SDS011;18543;50.848;4.596;2022-12-18T11:02:25;14.07;;;8.60;;
32026;SDS011;18543;50.848;4.596;2022-12-18T11:05:22;13.68;;;8.90;;
32026;SDS011;18543;50.848;4.596;2022-12-18T11:07:54;17.08;;;7.53;;
32026;SDS011;18543;50.848;4.596;2022-12-18T11:10:26;13.52;;;7.35;;
32026;SDS011;18543;50.848;4.596;2022-12-18T11:13:08;13.55;;;6.95;;
32026;SDS011;18543;50.848;4.596;2022-12-18T11:15:50;11.50;;;6.78;;
32026;SDS011;18543;50.848;4.596;2022-12-18T11:21:05;12.13;;;6.18;;
32026;SDS011;18543;50.848;4.596;2022-12-18T11:23:37;10.63;;;6.07;;
32026;SDS011;18543;50.848;4.596;2022-12-18T11:26:19;11.85;;;5.97;;
32026;SDS011;18543;50.848;4.596;2022-12-18T11:28:54;11.85;;;5.85;;
32026;SDS011;18543;50.848;4.596;2022-12-18T11:31:43;10.80;;;5.78;;
32026;SDS011;18543;50.848;4.596;2022-12-18T11:37:11;13.27;;;5.72;;
32026;SDS011;18543;50.848;4.596;2022-12-18T11:44:48;8.75;;;5.55;;
32026;SDS011;18543;50.848;4.596;2022-12-18T11:53:16;9.13;;;5.13;;
32026;SDS011;18543;50.848;4.596;2022-12-18T11:58:12;7.72;;;4.85;;
32026;SDS011;18543;50.848;4.596;2022-12-18T12:01:07;7.07;;;4.93;;
32026;SDS011;18543;50.848;4.596;2022-12-18T12:03:59;10.68;;;5.05;;
32026;SDS011;18543;50.848;4.596;2022-12-18T12:20:54;11.43;;;4.95;;
32026;SDS011;18543;50.848;4.596;2022-12-18T12:23:40;9.43;;;4.68;;
32026;SDS011;18543;50.848;4.596;2022-12-18T12:26:20;7.68;;;4.45;;
32026;SDS011;18543;50.848;4.596;2022-12-18T12:39:46;7.72;;;4.43;;
32026;SDS011;18543;50.848;4.596;2022-12-18T12:45:16;9.70;;;4.80;;
32026;SDS011;18543;50.848;4.596;2022-12-18T12:47:53;10.52;;;4.75;;
32026;SDS011;18543;50.848;4.596;2022-12-18T12:52:52;8.73;;;4.13;;
32026;SDS011;18543;50.848;4.596;2022-12-18T12:55:24;8.20;;;5.00;;
32026;SDS011;18543;50.848;4.596;2022-12-18T13:00:23;8.00;;;4.40;;
32026;SDS011;18543;50.848;4.596;2022-12-18T13:06:00;7.57;;;4.40;;
32026;SDS011;18543;50.848;4.596;2022-12-18T13:08:56;8.70;;;4.55;;
32026;SDS011;18543;50.848;4.596;2022-12-18T13:11:36;9.90;;;4.97;;
32026;SDS011;18543;50.848;4.596;2022-12-18T13:14:33;10.60;;;4.80;;
32026;SDS011;18543;50.848;4.596;2022-12-18T13:22:35;9.35;;;3.92;;
32026;SDS011;18543;50.848;4.596;2022-12-18T13:28:13;14.20;;;4.50;;
32026;SDS011;18543;50.848;4.596;2022-12-18T13:30:48;9.95;;;4.40;;
32026;SDS011;18543;50.848;4.596;2022-12-18T13:39:11;15.38;;;5.03;;
32026;SDS011;18543;50.848;4.596;2022-12-18T13:42:31;10.32;;;4.95;;
32026;SDS011;18543;50.848;4.596;2022-12-18T13:44:56;9.77;;;4.70;;
32026;SDS011;18543;50.848;4.596;2022-12-18T13:50:00;9.38;;;4.68;;
32026;SDS011;18543;50.848;4.596;2022-12-18T13:52:37;7.05;;;4.30;;
32026;SDS011;18543;50.848;4.596;2022-12-18T13:55:07;11.25;;;4.85;;
32026;SDS011;18543;50.848;4.596;2022-12-18T13:57:42;12.55;;;4.82;;
32026;SDS011;18543;50.848;4.596;2022-12-18T14:00:16;13.85;;;4.32;;
32026;SDS011;18543;50.848;4.596;2022-12-18T14:02:55;8.88;;;4.22;;
32026;SDS011;18543;50.848;4.596;2022-12-18T14:05:33;7.40;;;4.10;;
32026;SDS011;18543;50.848;4.596;2022-12-18T14:08:11;8.95;;;4.32;;
32026;SDS011;18543;50.848;4.596;2022-12-18T14:10:42;12.73;;;4.90;;
32026;SDS011;18543;50.848;4.596;2022-12-18T14:13:19;9.18;;;4.57;;
32026;SDS011;18543;50.848;4.596;2022-12-18T14:15:54;9.02;;;4.13;;
32026;SDS011;18543;50.848;4.596;2022-12-18T14:18:31;11.00;;;4.28;;
32026;SDS011;18543;50.848;4.596;2022-12-18T14:21:18;9.75;;;4.63;;
32026;SDS011;18543;50.848;4.596;2022-12-18T14:23:47;9.98;;;4.20;;
32026;SDS011;18543;50.848;4.596;2022-12-18T14:26:29;10.05;;;4.35;;
32026;SDS011;18543;50.848;4.596;2022-12-18T14:28:57;7.50;;;4.20;;
32026;SDS011;18543;50.848;4.596;2022-12-18T14:31:30;7.55;;;4.18;;
32026;SDS011;18543;50.848;4.596;2022-12-18T14:34:00;10.18;;;4.35;;
32026;SDS011;18543;50.848;4.596;2022-12-18T14:36:27;7.57;;;4.03;;
32026;SDS011;18543;50.848;4.596;2022-12-18T14:38:56;7.43;;;3.80;;
32026;SDS011;18543;50.848;4.596;2022-12-18T14:41:25;7.80;;;4.38;;
32026;SDS011;18543;50.848;4.596;2022-12-18T14:49:03;8.60;;;3.95;;
32026;SDS011;18543;50.848;4.596;2022-12-18T14:51:32;6.03;;;3.72;;
32026;SDS011;18543;50.848;4.596;2022-12-18T14:54:02;10.75;;;4.60;;
32026;SDS011;18543;50.848;4.596;2022-12-18T14:56:44;7.50;;;3.83;;
32026;SDS011;18543;50.848;4.596;2022-12-18T14:59:14;9.38;;;3.95;;
32026;SDS011;18543;50.848;4.596;2022-12-18T15:04:37;8.88;;;4.05;;
32026;SDS011;18543;50.848;4.596;2022-12-18T15:07:21;10.57;;;3.85;;
32026;SDS011;18543;50.848;4.596;2022-12-18T15:10:24;8.02;;;3.88;;
32026;SDS011;18543;50.848;4.596;2022-12-18T15:12:45;10.55;;;4.07;;
32026;SDS011;18543;50.848;4.596;2022-12-18T15:18:03;7.25;;;4.00;;
32026;SDS011;18543;50.848;4.596;2022-12-18T15:20:39;6.60;;;4.00;;
32026;SDS011;18543;50.848;4.596;2022-12-18T15:23:14;9.02;;;4.20;;
32026;SDS011;18543;50.848;4.596;2022-12-18T15:25:45;12.55;;;3.72;;
32026;SDS011;18543;50.848;4.596;2022-12-18T15:28:22;8.95;;;3.88;;
32026;SDS011;18543;50.848;4.596;2022-12-18T15:31:01;6.18;;;3.80;;
32026;SDS011;18543;50.848;4.596;2022-12-18T15:33:36;7.55;;;4.20;;
32026;SDS011;18543;50.848;4.596;2022-12-18T15:36:09;9.95;;;3.85;;
32026;SDS011;18543;50.848;4.596;2022-12-18T15:38:38;10.18;;;4.50;;
32026;SDS011;18543;50.848;4.596;2022-12-18T15:41:05;10.32;;;3.88;;
32026;SDS011;18543;50.848;4.596;2022-12-18T15:43:41;8.60;;;4.40;;
32026;SDS011;18543;50.848;4.596;2022-12-18T15:46:12;7.85;;;4.00;;
32026;SDS011;18543;50.848;4.596;2022-12-18T15:48:44;9.57;;;4.53;;
32026;SDS011;18543;50.848;4.596;2022-12-18T15:51:15;8.55;;;3.90;;
32026;SDS011;18543;50.848;4.596;2022-12-18T15:53:47;23.83;;;11.65;;
32026;SDS011;18543;50.848;4.596;2022-12-18T15:56:18;22.27;;;12.65;;
32026;SDS011;18543;50.848;4.596;2022-12-18T15:59:07;19.13;;;10.88;;
32026;SDS011;18543;50.848;4.596;2022-12-18T16:01:48;14.90;;;9.52;;
32026;SDS011;18543;50.848;4.596;2022-12-18T16:04:18;15.05;;;8.50;;
32026;SDS011;18543;50.848;4.596;2022-12-18T16:06:49;11.77;;;7.30;;
32026;SDS011;18543;50.848;4.596;2022-12-18T16:09:37;10.77;;;6.60;;
32026;SDS011;18543;50.848;4.596;2022-12-18T16:12:08;14.98;;;6.18;;
32026;SDS011;18543;50.848;4.596;2022-12-18T16:14:42;10.80;;;6.47;;
32026;SDS011;18543;50.848;4.596;2022-12-18T16:17:09;10.23;;;5.82;;
32026;SDS011;18543;50.848;4.596;2022-12-18T16:19:37;10.75;;;5.43;;
32026;SDS011;18543;50.848;4.596;2022-12-18T16:22:08;9.93;;;5.38;;
32026;SDS011;18543;50.848;4.596;2022-12-18T16:24:49;8.73;;;5.25;;
32026;SDS011;18543;50.848;4.596;2022-12-18T16:27:17;10.43;;;4.97;;
32026;SDS011;18543;50.848;4.596;2022-12-18T16:29:45;8.48;;;5.00;;
32026;SDS011;18543;50.848;4.596;2022-12-18T16:32:13;9.25;;;5.25;;
32026;SDS011;18543;50.848;4.596;2022-12-18T16:34:45;10.23;;;4.70;;
32026;SDS011;18543;50.848;4.596;2022-12-18T16:37:13;10.70;;;4.87;;
32026;SDS011;18543;50.848;4.596;2022-12-18T16:42:12;7.00;;;4.00;;
32026;SDS011;18543;50.848;4.596;2022-12-18T16:44:42;8.05;;;4.70;;
32026;SDS011;18543;50.848;4.596;2022-12-18T16:47:10;8.13;;;4.72;;
32026;SDS011;18543;50.848;4.596;2022-12-18T16:49:40;7.25;;;4.97;;
32026;SDS011;18543;50.848;4.596;2022-12-18T16:52:08;8.10;;;4.32;;
32026;SDS011;18543;50.848;4.596;2022-12-18T16:54:34;6.38;;;4.65;;
32026;SDS011;18543;50.848;4.596;2022-12-18T16:57:02;6.43;;;4.22;;
32026;SDS011;18543;50.848;4.596;2022-12-18T16:59:31;7.88;;;4.35;;
32026;SDS011;18543;50.848;4.596;2022-12-18T17:01:58;8.13;;;4.13;;
32026;SDS011;18543;50.848;4.596;2022-12-18T17:04:24;8.18;;;4.57;;
32026;SDS011;18543;50.848;4.596;2022-12-18T17:06:51;8.40;;;4.65;;
32026;SDS011;18543;50.848;4.596;2022-12-18T17:09:19;13.33;;;6.23;;
32026;SDS011;18543;50.848;4.596;2022-12-18T17:12:06;9.02;;;5.70;;
32026;SDS011;18543;50.848;4.596;2022-12-18T17:14:34;8.13;;;5.57;;
32026;SDS011;18543;50.848;4.596;2022-12-18T17:17:01;10.05;;;5.35;;
32026;SDS011;18543;50.848;4.596;2022-12-18T17:19:49;10.52;;;5.30;;
32026;SDS011;18543;50.848;4.596;2022-12-18T17:22:16;8.00;;;4.95;;
32026;SDS011;18543;50.848;4.596;2022-12-18T17:24:44;9.05;;;4.90;;